Time,TemperatureF,DewpointF,PressureIn,WindDirection,WindDirectionDegrees,WindSpeedMPH,WindSpeedGustMPH,Humidity,HourlyPrecipIn,Conditions,Clouds,dailyrainin,SoftwareType,DateUTC
2013-06-14 00:02:00,52.0,46.0,-100.00,WSW,258,7.0,10.0,80,0.00,,,-99.99,,2013-06-14 08:02:00,
2013-06-14 00:12:00,52.0,46.0,-100.00,WSW,258,7.0,10.0,80,0.00,,,-99.99,,2013-06-14 08:12:00,
2013-06-14 00:22:00,52.0,46.0,-100.00,WSW,258,7.0,10.0,80,0.00,,,-99.99,,2013-06-14 08:22:00,
2013-06-14 00:30:00,49.0,45.0,-100.00,West,268,9.0,14.0,86,0.00,,,-99.99,,2013-06-14 08:30:00,
2013-06-14 00:53:00,49.0,45.0,-100.00,West,268,9.0,14.0,86,0.00,,,-99.99,,2013-06-14 08:53:00,
2013-06-14 01:02:00,49.0,45.0,-100.00,West,268,9.0,14.0,86,0.00,,,-99.99,,2013-06-14 09:02:00,
2013-06-14 01:12:00,49.0,45.0,-100.00,West,268,9.0,14.0,86,0.00,,,-99.99,,2013-06-14 09:12:00,
2013-06-14 01:22:00,49.0,45.0,-100.00,West,268,9.0,14.0,86,0.00,,,-99.99,,2013-06-14 09:22:00,
2013-06-14 01:30:00,47.0,44.0,-100.00,West,260,16.0,21.0,90,0.00,,,-99.99,,2013-06-14 09:30:00,
2013-06-14 01:53:00,47.0,44.0,-100.00,West,260,16.0,21.0,90,0.00,,,-99.99,,2013-06-14 09:53:00,
2013-06-14 02:01:00,47.0,44.0,-100.00,West,260,16.0,21.0,90,0.00,,,-99.99,,2013-06-14 10:01:00,
2013-06-14 02:11:00,47.0,44.0,-100.00,West,260,16.0,21.0,90,0.00,,,-99.99,,2013-06-14 10:11:00,
2013-06-14 02:22:00,47.0,44.0,-100.00,West,260,16.0,21.0,90,0.00,,,-99.99,,2013-06-14 10:22:00,
2013-06-14 02:30:00,46.0,44.0,-100.00,WSW,254,10.0,12.0,92,0.00,,,-99.99,,2013-06-14 10:30:00,
2013-06-14 02:52:00,46.0,44.0,-100.00,WSW,254,10.0,12.0,92,0.00,,,-99.99,,2013-06-14 10:52:00,
2013-06-14 03:02:00,46.0,44.0,-100.00,WSW,254,10.0,12.0,92,0.00,,,-99.99,,2013-06-14 11:02:00,
2013-06-14 03:11:00,46.0,44.0,-100.00,WSW,254,10.0,12.0,92,0.00,,,-99.99,,2013-06-14 11:11:00,
2013-06-14 03:22:00,46.0,44.0,-100.00,WSW,254,10.0,12.0,92,0.00,,,-99.99,,2013-06-14 11:22:00,
2013-06-14 03:30:00,46.0,44.0,-100.00,West,275,4.0,6.0,96,0.00,,,-99.99,,2013-06-14 11:30:00,
2013-06-14 03:52:00,46.0,44.0,-100.00,West,275,4.0,6.0,96,0.00,,,-99.99,,2013-06-14 11:52:00,
2013-06-14 04:01:00,46.0,44.0,-100.00,West,275,4.0,6.0,96,0.00,,,-99.99,,2013-06-14 12:01:00,
2013-06-14 04:11:00,46.0,44.0,-100.00,West,275,4.0,6.0,96,0.00,,,-99.99,,2013-06-14 12:11:00,
2013-06-14 04:22:00,46.0,44.0,-100.00,West,275,4.0,6.0,96,0.00,,,-99.99,,2013-06-14 12:22:00,
2013-06-14 04:30:00,45.0,45.0,-100.00,NW,318,2.0,4.0,99,0.00,,,-99.99,,2013-06-14 12:30:00,
2013-06-14 04:52:00,45.0,45.0,-100.00,NW,318,2.0,4.0,99,0.00,,,-99.99,,2013-06-14 12:52:00,
2013-06-14 05:02:00,45.0,45.0,-100.00,NW,318,2.0,4.0,99,0.00,,,-99.99,,2013-06-14 13:02:00,
2013-06-14 05:11:00,45.0,45.0,-100.00,NW,318,2.0,4.0,99,0.00,,,-99.99,,2013-06-14 13:11:00,
2013-06-14 05:22:00,45.0,45.0,-100.00,NW,318,2.0,4.0,99,0.00,,,-99.99,,2013-06-14 13:22:00,
2013-06-14 05:30:00,45.0,-99.9,-100.00,East,95,6.0,7.0,103,0.00,,,-99.99,,2013-06-14 13:30:00,
2013-06-14 05:53:00,45.0,-99.9,-100.00,East,95,6.0,7.0,103,0.00,,,-99.99,,2013-06-14 13:53:00,
2013-06-14 06:02:00,45.0,-99.9,-100.00,East,95,6.0,7.0,103,0.00,,,-99.99,,2013-06-14 14:02:00,
2013-06-14 06:12:00,45.0,-99.9,-100.00,East,95,6.0,7.0,103,0.00,,,-99.99,,2013-06-14 14:12:00,
2013-06-14 06:22:00,45.0,-99.9,-100.00,East,95,6.0,7.0,103,0.00,,,-99.99,,2013-06-14 14:22:00,
2013-06-14 06:30:00,46.0,-99.9,-100.00,ENE,67,5.0,8.0,106,0.00,,,-99.99,,2013-06-14 14:30:00,
2013-06-14 06:52:00,46.0,-99.9,-100.00,ENE,67,5.0,8.0,106,0.00,,,-99.99,,2013-06-14 14:52:00,
2013-06-14 07:02:00,46.0,-99.9,-100.00,ENE,67,5.0,8.0,106,0.00,,,-99.99,,2013-06-14 15:02:00,
2013-06-14 07:12:00,46.0,-99.9,-100.00,ENE,67,5.0,8.0,106,0.00,,,-99.99,,2013-06-14 15:12:00,
2013-06-14 07:23:00,46.0,-99.9,-100.00,ENE,67,5.0,8.0,106,0.00,,,-99.99,,2013-06-14 15:23:00,
2013-06-14 07:30:00,46.0,-99.9,-100.00,WSW,258,3.0,6.0,106,0.00,,,-99.99,,2013-06-14 15:30:00,
2013-06-14 07:53:00,46.0,-99.9,-100.00,WSW,258,3.0,6.0,106,0.00,,,-99.99,,2013-06-14 15:53:00,
2013-06-14 08:02:00,46.0,-99.9,-100.00,WSW,258,3.0,6.0,106,0.00,,,-99.99,,2013-06-14 16:02:00,
2013-06-14 08:11:00,46.0,-99.9,-100.00,WSW,258,3.0,6.0,106,0.00,,,-99.99,,2013-06-14 16:11:00,
2013-06-14 08:23:00,46.0,-99.9,-100.00,WSW,258,3.0,6.0,106,0.00,,,-99.99,,2013-06-14 16:23:00,
2013-06-14 08:53:00,45.0,-99.9,-100.00,WSW,258,4.0,7.0,106,0.00,,,-99.99,,2013-06-14 16:53:00,
2013-06-14 09:02:00,45.0,-99.9,-100.00,WSW,258,4.0,7.0,106,0.00,,,-99.99,,2013-06-14 17:02:00,
2013-06-14 09:12:00,45.0,-99.9,-100.00,WSW,258,4.0,7.0,106,0.00,,,-99.99,,2013-06-14 17:12:00,
2013-06-14 09:23:00,45.0,-99.9,-100.00,WSW,258,4.0,7.0,106,0.00,,,-99.99,,2013-06-14 17:23:00,
2013-06-14 09:54:00,45.0,-99.9,-100.00,NE,41,2.0,3.0,109,0.00,,,-99.99,,2013-06-14 17:54:00,
2013-06-14 10:02:00,45.0,-99.9,-100.00,NE,41,2.0,3.0,109,0.00,,,-99.99,,2013-06-14 18:02:00,
2013-06-14 10:12:00,45.0,-99.9,-100.00,NE,41,2.0,3.0,109,0.00,,,-99.99,,2013-06-14 18:12:00,
2013-06-14 10:52:00,45.0,-99.9,-100.00,ENE,57,3.0,5.0,109,0.00,,,-99.99,,2013-06-14 18:52:00,
2013-06-14 11:02:00,45.0,-99.9,-100.00,ENE,57,3.0,5.0,109,0.00,,,-99.99,,2013-06-14 19:02:00,
2013-06-14 11:11:00,45.0,-99.9,-100.00,ENE,57,3.0,5.0,109,0.00,,,-99.99,,2013-06-14 19:11:00,
2013-06-14 11:30:00,50.0,-99.9,-100.00,WNW,283,2.0,6.0,110,0.00,,,-99.99,,2013-06-14 19:30:00,
2013-06-14 11:53:00,50.0,-99.9,-100.00,WNW,283,2.0,6.0,110,0.00,,,-99.99,,2013-06-14 19:53:00,
2013-06-14 12:02:00,50.0,-99.9,-100.00,WNW,283,2.0,6.0,110,0.00,,,-99.99,,2013-06-14 20:02:00,
2013-06-14 12:11:00,50.0,-99.9,-100.00,WNW,283,2.0,6.0,110,0.00,,,-99.99,,2013-06-14 20:11:00,
2013-06-14 12:22:00,50.0,-99.9,-100.00,WNW,283,2.0,6.0,110,0.00,,,-99.99,,2013-06-14 20:22:00,
2013-06-14 12:53:00,47.0,-99.9,-100.00,WSW,252,12.0,14.0,105,0.00,,,-99.99,,2013-06-14 20:53:00,
2013-06-14 13:02:00,47.0,-99.9,-100.00,WSW,252,12.0,14.0,105,0.00,,,-99.99,,2013-06-14 21:02:00,
2013-06-14 13:12:00,47.0,-99.9,-100.00,WSW,252,12.0,14.0,105,0.00,,,-99.99,,2013-06-14 21:12:00,
2013-06-14 13:22:00,47.0,-99.9,-100.00,WSW,252,12.0,14.0,105,0.00,,,-99.99,,2013-06-14 21:22:00,
2013-06-14 13:30:00,48.0,-99.9,-100.00,WSW,252,9.0,12.0,101,0.00,,,-99.99,,2013-06-14 21:30:00,
2013-06-14 13:52:00,48.0,-99.9,-100.00,WSW,252,9.0,12.0,101,0.00,,,-99.99,,2013-06-14 21:52:00,
2013-06-14 14:22:00,48.0,-99.9,-100.00,WSW,252,9.0,12.0,101,0.00,,,-99.99,,2013-06-14 22:22:00,
2013-06-14 14:30:00,51.0,49.0,-100.00,WSW,257,11.0,15.0,92,0.00,,,-99.99,,2013-06-14 22:30:00,
2013-06-14 14:53:00,51.0,49.0,-100.00,WSW,257,11.0,15.0,92,0.00,,,-99.99,,2013-06-14 22:53:00,
2013-06-14 15:01:00,51.0,49.0,-100.00,WSW,257,11.0,15.0,92,0.00,,,-99.99,,2013-06-14 23:01:00,
2013-06-14 15:11:00,51.0,49.0,-100.00,WSW,257,11.0,15.0,92,0.00,,,-99.99,,2013-06-14 23:11:00,
2013-06-14 15:22:00,51.0,49.0,-100.00,WSW,257,11.0,15.0,92,0.00,,,-99.99,,2013-06-14 23:22:00,
2013-06-14 15:30:00,52.0,48.0,-100.00,WSW,258,11.0,14.0,86,0.00,,,-99.99,,2013-06-14 23:30:00,
2013-06-14 15:52:00,52.0,48.0,-100.00,WSW,258,11.0,14.0,86,0.00,,,-99.99,,2013-06-14 23:52:00,
2013-06-14 16:01:00,52.0,48.0,-100.00,WSW,258,11.0,14.0,86,0.00,,,-99.99,,2013-06-15 00:01:00,
2013-06-14 16:11:00,52.0,48.0,-100.00,WSW,258,11.0,14.0,86,0.00,,,-99.99,,2013-06-15 00:11:00,
2013-06-14 16:22:00,52.0,48.0,-100.00,WSW,258,11.0,14.0,86,0.00,,,-99.99,,2013-06-15 00:22:00,
2013-06-14 16:30:00,52.0,48.0,-100.00,WSW,252,11.0,14.0,85,0.00,,,-99.99,,2013-06-15 00:30:00,
2013-06-14 16:53:00,52.0,48.0,-100.00,WSW,252,11.0,14.0,85,0.00,,,-99.99,,2013-06-15 00:53:00,
2013-06-14 17:01:00,52.0,48.0,-100.00,WSW,252,11.0,14.0,85,0.00,,,-99.99,,2013-06-15 01:01:00,
2013-06-14 17:11:00,52.0,48.0,-100.00,WSW,252,11.0,14.0,85,0.00,,,-99.99,,2013-06-15 01:11:00,
2013-06-14 17:22:00,52.0,48.0,-100.00,WSW,252,11.0,14.0,85,0.00,,,-99.99,,2013-06-15 01:22:00,
2013-06-14 17:30:00,53.0,47.0,-100.00,West,269,11.0,17.0,81,0.00,,,-99.99,,2013-06-15 01:30:00,
2013-06-14 17:54:00,53.0,47.0,-100.00,West,269,11.0,17.0,81,0.00,,,-99.99,,2013-06-15 01:54:00,
2013-06-14 18:02:00,53.0,47.0,-100.00,West,269,11.0,17.0,81,0.00,,,-99.99,,2013-06-15 02:02:00,
2013-06-14 18:11:00,53.0,47.0,-100.00,West,269,11.0,17.0,81,0.00,,,-99.99,,2013-06-15 02:11:00,
2013-06-14 18:22:00,53.0,47.0,-100.00,West,269,11.0,17.0,81,0.00,,,-99.99,,2013-06-15 02:22:00,
2013-06-14 18:30:00,53.0,47.0,-100.00,West,262,11.0,15.0,82,0.00,,,-99.99,,2013-06-15 02:30:00,
2013-06-14 18:53:00,53.0,47.0,-100.00,West,262,11.0,15.0,82,0.00,,,-99.99,,2013-06-15 02:53:00,
2013-06-14 19:01:00,53.0,47.0,-100.00,West,262,11.0,15.0,82,0.00,,,-99.99,,2013-06-15 03:01:00,
2013-06-14 19:11:00,53.0,47.0,-100.00,West,262,11.0,15.0,82,0.00,,,-99.99,,2013-06-15 03:11:00,
2013-06-14 19:23:00,53.0,47.0,-100.00,West,262,11.0,15.0,82,0.00,,,-99.99,,2013-06-15 03:23:00,
2013-06-14 19:30:00,55.0,47.0,-100.00,West,266,10.0,15.0,76,0.00,,,-99.99,,2013-06-15 03:30:00,
2013-06-14 19:53:00,55.0,47.0,-100.00,West,266,10.0,15.0,76,0.00,,,-99.99,,2013-06-15 03:53:00,
2013-06-14 20:01:00,55.0,47.0,-100.00,West,266,10.0,15.0,76,0.00,,,-99.99,,2013-06-15 04:01:00,
2013-06-14 20:11:00,55.0,47.0,-100.00,West,266,10.0,15.0,76,0.00,,,-99.99,,2013-06-15 04:11:00,
2013-06-14 20:22:00,55.0,47.0,-100.00,West,266,10.0,15.0,76,0.00,,,-99.99,,2013-06-15 04:22:00,
2013-06-14 20:30:00,54.0,46.0,-100.00,West,281,10.0,14.0,72,0.00,,,-99.99,,2013-06-15 04:30:00,
2013-06-14 20:54:00,54.0,46.0,-100.00,West,281,10.0,14.0,72,0.00,,,-99.99,,2013-06-15 04:54:00,
2013-06-14 21:02:00,54.0,46.0,-100.00,West,281,10.0,14.0,72,0.00,,,-99.99,,2013-06-15 05:02:00,
2013-06-14 21:12:00,54.0,46.0,-100.00,West,281,10.0,14.0,72,0.00,,,-99.99,,2013-06-15 05:12:00,
2013-06-14 21:22:00,54.0,46.0,-100.00,West,281,10.0,14.0,72,0.00,,,-99.99,,2013-06-15 05:22:00,
2013-06-14 21:30:00,56.0,46.0,-100.00,West,281,6.0,9.0,69,0.00,,,-99.99,,2013-06-15 05:30:00,
2013-06-14 21:52:00,56.0,46.0,-100.00,West,281,6.0,9.0,69,0.00,,,-99.99,,2013-06-15 05:52:00,
2013-06-14 22:02:00,56.0,46.0,-100.00,West,281,6.0,9.0,69,0.00,,,-99.99,,2013-06-15 06:02:00,
2013-06-14 22:12:00,56.0,46.0,-100.00,West,281,6.0,9.0,69,0.00,,,-99.99,,2013-06-15 06:12:00,
2013-06-14 22:24:00,56.0,46.0,-100.00,West,281,6.0,9.0,69,0.00,,,-99.99,,2013-06-15 06:24:00,
2013-06-14 22:30:00,56.0,46.0,-100.00,North,11,2.0,4.0,68,0.00,,,-99.99,,2013-06-15 06:30:00,
2013-06-14 22:53:00,56.0,46.0,-100.00,North,11,2.0,4.0,68,0.00,,,-99.99,,2013-06-15 06:53:00,
2013-06-14 23:01:00,56.0,46.0,-100.00,North,11,2.0,4.0,68,0.00,,,-99.99,,2013-06-15 07:01:00,
2013-06-14 23:11:00,56.0,46.0,-100.00,North,11,2.0,4.0,68,0.00,,,-99.99,,2013-06-15 07:11:00,
2013-06-14 23:23:00,56.0,46.0,-100.00,North,11,2.0,4.0,68,0.00,,,-99.99,,2013-06-15 07:23:00,
2013-06-14 23:30:00,54.0,46.0,-100.00,ESE,114,5.0,7.0,74,0.00,,,-99.99,,2013-06-15 07:30:00,
2013-06-14 23:53:00,54.0,46.0,-100.00,ESE,114,5.0,7.0,74,0.00,,,-99.99,,2013-06-15 07:53:00,